createdAt,value
2022-10-19T00:00:11.432Z,188.73
2022-10-19T00:02:45.606Z,183.83
2022-10-19T00:05:22.141Z,186.97
2022-10-19T00:07:57.451Z,170.07
2022-10-19T00:10:32.536Z,150.00
2022-10-19T00:13:06.992Z,166.40
2022-10-19T00:15:44.611Z,147.40
2022-10-19T00:18:18.763Z,178.87
2022-10-19T00:21:05.672Z,187.57
2022-10-19T00:23:40.444Z,188.70
2022-10-19T00:26:15.268Z,181.53
2022-10-19T00:28:50.168Z,184.77
2022-10-19T00:31:24.808Z,161.40
2022-10-19T00:34:11.516Z,148.03
2022-10-19T00:36:48.312Z,203.97
2022-10-19T00:39:23.435Z,171.73
2022-10-19T00:41:57.065Z,174.97
2022-10-19T00:45:08.234Z,145.10
2022-10-19T00:47:43.288Z,172.40
2022-10-19T00:50:18.723Z,149.73
2022-10-19T00:52:55.463Z,131.50
2022-10-19T00:55:30.373Z,134.70
2022-10-19T00:58:07.661Z,163.80
2022-10-19T01:00:43.351Z,165.63
2022-10-19T01:03:19.524Z,183.40
2022-10-19T01:06:01.079Z,185.70
2022-10-19T01:08:37.995Z,187.33
2022-10-19T01:11:41.884Z,192.17
2022-10-19T01:14:34.546Z,173.23
2022-10-19T01:17:14.100Z,180.67
2022-10-19T01:20:49.230Z,171.87
2022-10-19T01:23:53.192Z,173.20
2022-10-19T01:26:50.759Z,149.30
2022-10-19T01:29:41.815Z,159.37
2022-10-19T01:32:26.534Z,144.10
2022-10-19T01:35:17.157Z,150.10
2022-10-19T01:37:55.567Z,134.43
2022-10-19T01:40:38.662Z,134.47
2022-10-19T01:43:23.154Z,134.40
2022-10-19T01:46:08.623Z,131.03
2022-10-19T01:48:57.120Z,126.57
2022-10-19T01:51:39.106Z,124.27
2022-10-19T01:54:22.785Z,135.03
2022-10-19T01:57:05.036Z,119.43
2022-10-19T01:59:46.116Z,120.23
2022-10-19T02:02:29.651Z,120.43
2022-10-19T02:05:12.902Z,121.77
2022-10-19T02:07:54.288Z,118.60
2022-10-19T02:10:32.216Z,124.33
2022-10-19T02:13:07.558Z,128.03
2022-10-19T02:15:44.997Z,124.73
2022-10-19T02:18:22.826Z,147.40
2022-10-19T02:21:01.576Z,154.20
2022-10-19T02:23:51.896Z,150.00
2022-10-19T02:26:33.472Z,147.43
2022-10-19T02:29:07.297Z,158.40
2022-10-19T02:31:43.128Z,161.70
2022-10-19T02:34:18.432Z,167.20
2022-10-19T02:37:02.322Z,174.83
2022-10-19T02:39:38.474Z,165.80
2022-10-19T02:42:20.864Z,177.80
2022-10-19T02:45:02.626Z,213.63
2022-10-19T02:47:39.207Z,210.70
2022-10-19T02:50:14.926Z,227.33
2022-10-19T02:52:58.741Z,271.90
2022-10-19T02:55:34.719Z,269.43
2022-10-19T02:58:13.313Z,268.03
2022-10-19T03:00:54.572Z,267.43
2022-10-19T03:03:33.309Z,279.90
2022-10-19T03:06:08.670Z,291.03
2022-10-19T03:08:45.097Z,285.00
2022-10-19T03:11:23.648Z,292.77
2022-10-19T03:13:59.140Z,281.30
2022-10-19T03:16:39.801Z,286.13
2022-10-19T03:19:16.728Z,278.37
2022-10-19T03:21:53.562Z,269.90
2022-10-19T03:24:41.264Z,280.27
2022-10-19T03:27:21.398Z,244.03
2022-10-19T03:29:55.479Z,259.83
2022-10-19T03:32:37.722Z,290.77
2022-10-19T03:35:14.460Z,266.70
2022-10-19T03:37:48.482Z,274.27
2022-10-19T03:40:33.485Z,283.90
2022-10-19T03:43:08.300Z,257.97
2022-10-19T03:45:42.950Z,227.73
2022-10-19T03:48:18.012Z,231.53
2022-10-19T03:50:56.185Z,230.30
2022-10-19T03:53:36.290Z,231.23
2022-10-19T03:56:20.662Z,229.30
2022-10-19T03:58:57.767Z,236.50
2022-10-19T04:01:43.262Z,240.97
2022-10-19T04:04:23.473Z,251.17
2022-10-19T04:07:00.362Z,272.33
2022-10-19T04:09:41.101Z,260.70
2022-10-19T04:12:25.419Z,268.50
2022-10-19T04:15:02.073Z,264.30
2022-10-19T04:17:36.723Z,276.00
2022-10-19T04:20:17.962Z,270.67
2022-10-19T04:23:08.135Z,279.47
2022-10-19T04:25:48.527Z,248.83
2022-10-19T04:28:35.310Z,256.20
2022-10-19T04:31:11.549Z,250.33
2022-10-19T04:36:31.813Z,246.87
2022-10-19T04:39:29.446Z,260.93
2022-10-19T04:42:06.564Z,234.53
2022-10-19T04:45:01.561Z,248.10
2022-10-19T04:47:37.387Z,237.97
2022-10-19T04:50:18.189Z,233.50
2022-10-19T04:52:54.758Z,241.63
2022-10-19T04:55:39.152Z,240.70
2022-10-19T04:58:15.385Z,223.50
2022-10-19T05:00:59.998Z,229.23
2022-10-19T05:03:38.455Z,213.37
2022-10-19T05:06:21.089Z,204.60
2022-10-19T05:08:55.468Z,211.43
2022-10-19T05:11:32.548Z,213.20
2022-10-19T05:14:14.375Z,196.37
2022-10-19T05:16:52.793Z,214.07
2022-10-19T05:19:28.615Z,208.17
2022-10-19T05:22:06.711Z,211.87
2022-10-19T05:24:41.174Z,199.67
2022-10-19T05:27:15.124Z,200.93
2022-10-19T05:29:57.682Z,199.20
2022-10-19T05:32:36.694Z,190.67
2022-10-19T05:35:21.498Z,188.37
2022-10-19T05:38:06.914Z,182.73
2022-10-19T05:40:41.005Z,179.37
2022-10-19T05:43:17.688Z,191.50
2022-10-19T05:45:55.567Z,176.60
2022-10-19T05:48:35.436Z,180.60
2022-10-19T05:51:12.112Z,178.37
2022-10-19T05:53:53.027Z,168.50
2022-10-19T05:56:29.739Z,172.07
2022-10-19T05:59:14.275Z,161.63
2022-10-19T06:01:48.727Z,166.60
2022-10-19T06:04:25.349Z,170.43
2022-10-19T06:07:00.940Z,163.60
2022-10-19T06:09:38.216Z,169.47
2022-10-19T06:12:24.258Z,169.90
2022-10-19T06:15:03.785Z,186.80
2022-10-19T06:17:37.893Z,183.77
2022-10-19T06:20:16.248Z,180.50
2022-10-19T06:22:51.275Z,162.80
2022-10-19T06:25:25.477Z,167.40
2022-10-19T06:28:25.183Z,166.57
2022-10-19T06:31:01.095Z,161.53
2022-10-19T06:33:38.555Z,162.33
2022-10-19T06:36:19.795Z,163.60
2022-10-19T06:38:57.973Z,156.10
2022-10-19T06:41:33.938Z,163.70
2022-10-19T06:44:26.671Z,164.47
2022-10-19T06:47:01.230Z,162.17
2022-10-19T06:49:37.252Z,160.30
2022-10-19T06:52:16.737Z,163.57
2022-10-19T06:54:53.450Z,161.53
2022-10-19T06:57:33.206Z,165.93
2022-10-19T07:00:13.427Z,164.83
2022-10-19T07:02:48.920Z,160.00
2022-10-19T07:05:27.151Z,156.27
2022-10-19T07:08:13.537Z,166.73
2022-10-19T07:11:01.335Z,159.27
2022-10-19T07:13:39.996Z,160.90
2022-10-19T07:16:21.168Z,166.60
2022-10-19T07:18:58.624Z,171.47
2022-10-19T07:21:32.858Z,165.03
2022-10-19T07:24:08.529Z,182.20
2022-10-19T07:26:43.817Z,174.30
2022-10-19T07:29:18.911Z,183.67
2022-10-19T07:32:04.691Z,184.40
2022-10-19T07:34:39.255Z,176.43
2022-10-19T07:37:14.747Z,172.47
2022-10-19T07:39:49.997Z,178.83
2022-10-19T07:42:26.490Z,172.60
2022-10-19T07:45:00.661Z,174.37
2022-10-19T07:47:35.258Z,160.73
2022-10-19T07:50:14.244Z,172.80
2022-10-19T07:52:49.322Z,157.90
2022-10-19T07:55:33.155Z,170.80
2022-10-19T07:58:10.368Z,155.53
2022-10-19T08:00:53.862Z,163.47
2022-10-19T08:04:14.227Z,142.03
2022-10-19T08:06:26.738Z,184.60
2022-10-19T08:09:11.315Z,149.07
2022-10-19T08:11:55.560Z,148.83
2022-10-19T08:14:29.589Z,157.70
2022-10-19T08:17:12.795Z,150.47
2022-10-19T08:19:51.519Z,147.80
2022-10-19T08:22:24.913Z,139.33
2022-10-19T08:25:03.282Z,137.77
2022-10-19T08:27:42.281Z,138.30
2022-10-19T08:30:19.009Z,146.37
2022-10-19T08:32:54.531Z,149.40
2022-10-19T08:35:31.781Z,145.87
2022-10-19T08:38:10.931Z,140.83
2022-10-19T08:40:51.604Z,141.60
2022-10-19T08:43:42.957Z,145.80
2022-10-19T08:46:26.086Z,142.13
2022-10-19T08:49:03.198Z,132.23
2022-10-19T08:51:43.117Z,137.97
2022-10-19T08:54:21.993Z,132.47
2022-10-19T08:57:09.335Z,140.17
2022-10-19T08:59:50.925Z,131.27
2022-10-19T09:02:38.816Z,125.33
2022-10-19T09:05:25.018Z,125.33
2022-10-19T09:08:01.523Z,127.03
2022-10-19T09:10:39.496Z,127.67
2022-10-19T09:13:21.248Z,123.20
2022-10-19T09:16:04.490Z,128.63
2022-10-19T09:18:43.656Z,130.33
2022-10-19T09:21:30.157Z,129.87
2022-10-19T09:24:20.190Z,125.10
2022-10-19T09:27:00.534Z,128.33
2022-10-19T09:29:44.470Z,119.27
2022-10-19T09:32:26.288Z,117.07
2022-10-19T09:35:05.184Z,116.70
2022-10-19T09:37:45.938Z,113.83
2022-10-19T09:40:27.658Z,106.87
2022-10-19T09:43:21.701Z,108.30
2022-10-19T09:46:16.453Z,101.63
2022-10-19T09:48:58.662Z,98.83
2022-10-19T09:51:51.634Z,106.57
2022-10-19T09:54:42.216Z,106.03
2022-10-19T09:57:33.514Z,106.90
2022-10-19T10:00:08.705Z,103.57
2022-10-19T10:02:49.648Z,109.23
2022-10-19T10:05:37.153Z,106.90
2022-10-19T10:08:22.484Z,103.33
2022-10-19T10:11:03.632Z,104.93
2022-10-19T10:13:46.808Z,162.40
2022-10-19T10:16:24.628Z,180.90
2022-10-19T10:19:03.324Z,184.97
2022-10-19T10:21:51.299Z,183.67
2022-10-19T10:24:32.406Z,188.30
2022-10-19T10:27:15.826Z,208.27
2022-10-19T10:30:01.940Z,217.87
2022-10-19T10:32:43.298Z,207.43
2022-10-19T10:35:23.809Z,215.93
2022-10-19T10:38:11.649Z,213.57
2022-10-19T10:40:53.656Z,209.60
2022-10-19T10:43:35.085Z,222.70
2022-10-19T10:46:12.495Z,207.33
2022-10-19T10:48:53.320Z,218.17
2022-10-19T10:51:35.920Z,222.20
2022-10-19T10:54:22.254Z,215.00
2022-10-19T10:57:19.577Z,211.40
2022-10-19T11:00:09.522Z,229.57
2022-10-19T11:02:52.887Z,222.17
2022-10-19T11:05:31.323Z,215.67
2022-10-19T11:08:20.820Z,220.67
2022-10-19T11:11:04.227Z,226.80
2022-10-19T11:13:44.070Z,226.37
2022-10-19T11:16:21.232Z,221.30
2022-10-19T11:19:01.852Z,229.13
2022-10-19T11:21:44.123Z,225.20
2022-10-19T11:24:28.289Z,226.43
2022-10-19T11:27:24.086Z,236.57
2022-10-19T11:30:17.126Z,239.63
2022-10-19T11:33:01.533Z,230.33
2022-10-19T11:35:49.005Z,226.00
2022-10-19T11:38:44.667Z,226.90
2022-10-19T11:41:36.462Z,215.27
2022-10-19T11:44:32.300Z,229.47
2022-10-19T11:47:39.859Z,212.97
2022-10-19T11:50:32.020Z,215.87
2022-10-19T11:53:17.060Z,226.13
2022-10-19T11:56:05.362Z,208.47
2022-10-19T11:58:58.623Z,212.27
2022-10-19T12:04:50.909Z,207.53
2022-10-19T12:07:38.364Z,204.20
2022-10-19T12:10:29.271Z,227.23
2022-10-19T12:13:09.328Z,204.40
2022-10-19T12:15:46.814Z,218.60
2022-10-19T12:18:26.599Z,215.30
2022-10-19T12:21:13.466Z,212.53
2022-10-19T12:23:50.948Z,199.77
2022-10-19T12:26:28.733Z,208.73
2022-10-19T12:29:13.240Z,208.47
2022-10-19T12:31:50.322Z,212.33
2022-10-19T12:34:38.570Z,216.63
2022-10-19T12:37:20.479Z,223.33
2022-10-19T12:40:05.028Z,220.33
2022-10-19T12:42:52.595Z,213.07
2022-10-19T12:45:39.520Z,218.83
2022-10-19T12:48:37.626Z,215.23
2022-10-19T12:51:16.346Z,213.73
2022-10-19T12:54:13.764Z,215.77
2022-10-19T12:56:56.125Z,211.20
2022-10-19T12:59:37.634Z,215.63
2022-10-19T13:02:29.440Z,222.57
2022-10-19T13:05:07.958Z,236.50
2022-10-19T13:07:45.429Z,222.43
2022-10-19T13:10:26.683Z,223.30
2022-10-19T13:13:04.588Z,211.13
2022-10-19T13:15:56.238Z,224.43
2022-10-19T13:19:19.625Z,227.07
2022-10-19T13:22:11.540Z,226.27
2022-10-19T13:24:45.745Z,219.50
2022-10-19T13:27:45.521Z,228.37
2022-10-19T13:31:04.948Z,223.63
2022-10-19T13:33:58.649Z,221.20
2022-10-19T13:36:45.974Z,230.23
2022-10-19T13:39:35.769Z,228.27
2022-10-19T13:42:34.417Z,231.87
2022-10-19T13:45:29.182Z,230.87
2022-10-19T13:48:22.219Z,229.60
2022-10-19T13:51:10.184Z,222.87
2022-10-19T13:53:50.682Z,221.50
2022-10-19T13:56:56.282Z,240.53
2022-10-19T13:59:59.184Z,231.03
2022-10-19T14:03:13.425Z,228.97
2022-10-19T14:06:26.139Z,236.43
2022-10-19T14:09:36.652Z,235.97
2022-10-19T14:12:20.430Z,243.93
2022-10-19T14:14:56.453Z,235.97
2022-10-19T14:17:35.007Z,229.60
2022-10-19T14:20:33.374Z,223.03
2022-10-19T14:23:30.360Z,218.27
2022-10-19T14:26:14.959Z,219.60
2022-10-19T14:28:52.057Z,206.10
2022-10-19T14:31:37.904Z,212.90
2022-10-19T14:34:14.371Z,225.37
2022-10-19T14:36:52.809Z,207.37
2022-10-19T14:39:41.047Z,209.27
2022-10-19T14:42:32.638Z,215.00
2022-10-19T14:45:16.229Z,220.50
2022-10-19T14:48:21.713Z,208.30
2022-10-19T14:51:01.305Z,207.33
2022-10-19T14:53:50.779Z,222.43
2022-10-19T14:56:44.174Z,228.77
2022-10-19T14:59:28.658Z,212.23
2022-10-19T15:02:12.294Z,218.80
2022-10-19T15:04:48.729Z,222.70
2022-10-19T15:07:27.158Z,219.47
2022-10-19T15:10:16.532Z,219.03
2022-10-19T15:13:14.719Z,222.57
2022-10-19T15:15:57.367Z,215.03
2022-10-19T15:18:50.323Z,215.27
2022-10-19T15:21:30.354Z,216.83
2022-10-19T15:24:31.975Z,216.87
2022-10-19T15:27:21.292Z,231.23
2022-10-19T15:30:06.377Z,212.13
2022-10-19T15:32:45.287Z,221.90
2022-10-19T15:35:44.613Z,208.93
2022-10-19T15:38:38.977Z,210.90
2022-10-19T15:41:30.821Z,212.60
2022-10-19T15:44:09.453Z,221.43
2022-10-19T15:47:19.371Z,228.67
2022-10-19T15:50:02.734Z,203.43
2022-10-19T15:52:42.093Z,212.90
2022-10-19T15:55:22.350Z,216.97
2022-10-19T15:58:04.351Z,210.77
2022-10-19T16:00:55.397Z,223.30
2022-10-19T16:06:51.356Z,229.10
2022-10-19T16:09:31.981Z,237.63
2022-10-19T16:12:13.183Z,233.17
2022-10-19T16:14:50.575Z,222.37
2022-10-19T16:17:36.947Z,219.40
2022-10-19T16:20:26.777Z,232.97
2022-10-19T16:23:01.993Z,224.57
2022-10-19T16:25:40.371Z,210.60
2022-10-19T16:28:24.695Z,206.50
2022-10-19T16:31:06.532Z,213.67
2022-10-19T16:33:42.304Z,212.30
2022-10-19T16:36:20.547Z,212.37
2022-10-19T16:38:57.198Z,207.63
2022-10-19T16:41:33.397Z,210.40
2022-10-19T16:44:12.511Z,209.97
2022-10-19T16:46:52.691Z,202.43
2022-10-19T16:49:40.792Z,207.40
2022-10-19T16:52:20.581Z,214.17
2022-10-19T16:54:59.773Z,221.60
2022-10-19T16:57:35.119Z,214.07
2022-10-19T17:00:13.566Z,217.10
2022-10-19T17:02:48.640Z,214.80
2022-10-19T17:05:23.887Z,216.23
2022-10-19T17:07:58.906Z,219.50
2022-10-19T17:10:36.704Z,216.70
2022-10-19T17:13:12.976Z,221.87
2022-10-19T17:15:47.408Z,213.83
2022-10-19T17:18:28.159Z,211.33
2022-10-19T17:21:10.772Z,199.53
2022-10-19T17:23:51.602Z,202.67
2022-10-19T17:26:30.417Z,206.37
2022-10-19T17:29:07.152Z,199.90
2022-10-19T17:31:43.666Z,207.63
2022-10-19T17:34:23.617Z,203.57
2022-10-19T17:37:12.244Z,211.00
2022-10-19T17:39:47.442Z,202.13
2022-10-19T17:42:26.077Z,208.13
2022-10-19T17:45:01.780Z,199.33
2022-10-19T17:47:38.604Z,209.87
2022-10-19T17:50:15.380Z,202.57
2022-10-19T17:52:49.832Z,202.40
2022-10-19T17:55:28.810Z,211.63
2022-10-19T17:58:11.905Z,206.07
2022-10-19T18:00:46.022Z,211.73
2022-10-19T18:03:23.943Z,210.07
2022-10-19T18:06:09.849Z,213.70
2022-10-19T18:08:51.355Z,210.33
2022-10-19T18:11:27.697Z,206.97
2022-10-19T18:14:05.931Z,205.10
2022-10-19T18:16:46.485Z,215.53
2022-10-19T18:19:26.723Z,208.53
2022-10-19T18:22:01.981Z,214.83
2022-10-19T18:24:38.080Z,213.90
2022-10-19T18:27:13.989Z,220.07
2022-10-19T18:29:51.367Z,224.43
2022-10-19T18:32:25.965Z,217.63
2022-10-19T18:35:00.417Z,222.27
2022-10-19T18:37:37.628Z,219.23
2022-10-19T18:40:13.695Z,234.50
2022-10-19T18:42:48.674Z,212.67
2022-10-19T18:45:29.365Z,222.70
2022-10-19T18:48:04.237Z,240.77
2022-10-19T18:50:38.396Z,218.13
2022-10-19T18:53:12.889Z,224.40
2022-10-19T18:55:47.468Z,218.80
2022-10-19T18:58:22.786Z,217.37
2022-10-19T19:01:08.394Z,223.90
2022-10-19T19:03:44.328Z,216.17
2022-10-19T19:06:20.429Z,221.17
2022-10-19T19:08:55.067Z,212.67
2022-10-19T19:11:33.087Z,218.47
2022-10-19T19:14:11.475Z,227.07
2022-10-19T19:16:48.810Z,220.03
2022-10-19T19:19:25.616Z,224.30
2022-10-19T19:21:59.946Z,231.47
2022-10-19T19:24:37.763Z,243.37
2022-10-19T19:27:11.731Z,238.93
2022-10-19T19:29:46.114Z,238.27
2022-10-19T19:32:22.445Z,228.83
2022-10-19T19:34:56.393Z,237.17
2022-10-19T19:37:33.716Z,240.43
2022-10-19T19:40:08.725Z,235.57
2022-10-19T19:42:43.073Z,253.20
2022-10-19T19:45:17.930Z,253.80
2022-10-19T19:47:53.943Z,247.93
2022-10-19T19:50:27.905Z,246.23
2022-10-19T19:53:03.159Z,253.30
2022-10-19T19:55:40.070Z,256.63
2022-10-19T19:58:13.788Z,243.07
2022-10-19T20:00:47.643Z,259.10
2022-10-19T20:03:22.869Z,259.60
2022-10-19T20:05:57.016Z,252.57
2022-10-19T20:08:30.866Z,250.50
2022-10-19T20:11:08.199Z,253.07
2022-10-19T20:13:42.706Z,255.30
2022-10-19T20:16:18.165Z,243.07
2022-10-19T20:18:55.907Z,247.67
2022-10-19T20:21:29.766Z,236.10
2022-10-19T20:24:04.219Z,258.07
2022-10-19T20:26:38.794Z,248.43
2022-10-19T20:29:12.795Z,245.73
2022-10-19T20:31:46.221Z,239.00
2022-10-19T20:34:23.994Z,241.47
2022-10-19T20:36:58.137Z,239.67
2022-10-19T20:39:35.277Z,239.40
2022-10-19T20:42:10.590Z,243.20
2022-10-19T20:44:44.820Z,254.40
2022-10-19T20:47:18.619Z,236.43
2022-10-19T20:49:54.989Z,237.63
2022-10-19T20:52:29.182Z,228.80
2022-10-19T20:55:10.486Z,228.17
2022-10-19T20:57:44.202Z,223.30
2022-10-19T21:00:22.077Z,225.57
2022-10-19T21:02:56.308Z,212.87
2022-10-19T21:05:31.860Z,223.10
2022-10-19T21:08:05.734Z,215.87
2022-10-19T21:10:38.912Z,222.40
2022-10-19T21:13:13.783Z,201.90
2022-10-19T21:15:47.830Z,215.90
2022-10-19T21:18:22.165Z,216.53
2022-10-19T21:20:57.929Z,212.13
2022-10-19T21:23:32.229Z,205.90
2022-10-19T21:26:05.812Z,203.07
2022-10-19T21:28:39.904Z,208.10
2022-10-19T21:31:14.048Z,222.10
2022-10-19T21:33:48.369Z,205.20
2022-10-19T21:36:26.232Z,190.33
2022-10-19T21:39:00.138Z,203.20
2022-10-19T21:41:34.141Z,206.63
2022-10-19T21:44:07.520Z,198.03
2022-10-19T21:46:41.385Z,205.03
2022-10-19T21:49:15.856Z,195.90
2022-10-19T21:51:53.307Z,193.93
2022-10-19T21:54:30.456Z,194.27
2022-10-19T21:57:04.866Z,191.40
2022-10-19T21:59:39.261Z,194.50
2022-10-19T22:02:13.577Z,193.97
2022-10-19T22:04:48.234Z,196.93
2022-10-19T22:07:24.682Z,200.93
2022-10-19T22:09:59.368Z,194.73
2022-10-19T22:12:33.719Z,202.63
2022-10-19T22:15:08.635Z,212.47
2022-10-19T22:17:42.941Z,195.83
2022-10-19T22:20:17.849Z,209.27
2022-10-19T22:22:55.074Z,207.20
2022-10-19T22:25:29.649Z,207.60
2022-10-19T22:28:04.611Z,204.10
2022-10-19T22:30:38.784Z,217.53
2022-10-19T22:33:13.132Z,204.50
2022-10-19T22:35:47.075Z,208.30
2022-10-19T22:38:23.609Z,202.30
2022-10-19T22:41:48.119Z,201.17
2022-10-19T22:44:37.729Z,196.33
2022-10-19T22:47:14.320Z,202.30
2022-10-19T22:49:48.883Z,206.17
2022-10-19T22:52:23.184Z,197.27
2022-10-19T22:54:59.616Z,188.93
2022-10-19T22:57:34.058Z,193.17
2022-10-19T23:00:08.554Z,201.27
2022-10-19T23:02:43.095Z,196.30
2022-10-19T23:05:18.320Z,194.43
2022-10-19T23:07:52.852Z,195.20
2022-10-19T23:10:29.305Z,193.97
2022-10-19T23:13:03.860Z,193.40
2022-10-19T23:15:41.706Z,186.80
2022-10-19T23:18:18.344Z,190.87
2022-10-19T23:20:59.794Z,191.63
2022-10-19T23:23:56.122Z,180.30
2022-10-19T23:26:32.554Z,184.80
2022-10-19T23:29:07.455Z,173.17
2022-10-19T23:31:42.200Z,178.87
2022-10-19T23:34:17.281Z,186.77
2022-10-19T23:36:51.949Z,181.17
2022-10-19T23:39:27.481Z,183.13
2022-10-19T23:42:04.738Z,170.37
2022-10-19T23:44:39.862Z,179.43
2022-10-19T23:47:14.019Z,190.70
2022-10-19T23:49:48.867Z,173.17
2022-10-19T23:52:24.052Z,169.53
2022-10-19T23:54:58.299Z,162.47
2022-10-19T23:57:35.096Z,167.03
